Time;durP1;ratioP1;P1;durP2;ratioP2;P2;SDS_P1;SDS_P2;PMS_P1;PMS_P2;Temp;Humidity;BMP_temperature;BMP_pressure;BME280_temperature;BME280_humidity;BME280_pressure;Samples;Min_cycle;Max_cycle;Signal;HPM_P1;HPM_P2
2020/12/17 00:01:09;;;;;;;31.40;14.73;;;;;;;2.78;85.63;99384.63;4957652;28;20456;-62
2020/12/17 00:03:34;;;;;;;28.70;14.23;;;;;;;2.80;85.11;99388.06;4956633;29;20094;-61
2020/12/17 00:06:00;;;;;;;32.87;17.20;;;;;;;2.77;85.16;99378.69;4956441;29;20459;-61
2020/12/17 00:08:25;;;;;;;30.93;14.27;;;;;;;2.75;85.59;99376.16;4956527;29;20449;-61
2020/12/17 00:10:51;;;;;;;36.50;18.47;;;;;;;2.73;85.29;99366.78;4941602;29;20085;-61
2020/12/17 00:13:16;;;;;;;36.40;16.70;;;;;;;2.76;85.69;99376.97;4955730;29;20125;-61
2020/12/17 00:15:42;;;;;;;37.33;17.40;;;;;;;2.72;85.77;99376.03;4955746;29;20035;-62
2020/12/17 00:18:07;;;;;;;38.17;17.33;;;;;;;2.76;85.50;99380.34;4952136;28;20030;-62
2020/12/17 00:20:33;;;;;;;31.80;16.53;;;;;;;2.75;86.01;99381.22;4947476;28;20053;-62
2020/12/17 00:22:58;;;;;;;34.50;17.10;;;;;;;2.73;85.75;99376.91;4955461;29;20039;-62
2020/12/17 00:25:24;;;;;;;38.37;17.03;;;;;;;2.72;85.76;99386.16;4956447;28;20050;-63
2020/12/17 00:27:50;;;;;;;35.80;17.37;;;;;;;2.72;85.78;99385.31;4956327;29;20031;-62
2020/12/17 00:30:16;;;;;;;36.90;15.93;;;;;;;2.78;86.59;99377.03;4956458;29;20046;-62
2020/12/17 00:32:45;;;;;;;35.23;14.90;;;;;;;2.81;85.97;99382.16;4955507;28;20023;-62
2020/12/17 00:35:11;;;;;;;34.77;17.80;;;;;;;2.79;85.52;99383.81;4956976;28;20066;-61
2020/12/17 00:37:38;;;;;;;35.57;15.33;;;;;;;2.81;85.68;99384.69;4955683;29;20023;-60
2020/12/17 00:40:06;;;;;;;39.77;18.03;;;;;;;2.79;85.99;99383.81;4957319;28;20031;-61
2020/12/17 00:42:32;;;;;;;44.60;18.67;;;;;;;2.78;85.52;99380.41;4952329;28;20035;-61
2020/12/17 00:44:57;;;;;;;42.70;17.70;;;;;;;2.77;85.76;99386.28;4937947;29;20107;-61
2020/12/17 00:47:28;;;;;;;37.67;18.30;;;;;;;2.81;85.96;99388.06;4937828;28;20059;-61
2020/12/17 00:49:53;;;;;;;40.20;17.53;;;;;;;2.81;85.62;99384.69;4956309;28;20431;-61
2020/12/17 00:52:22;;;;;;;42.30;16.83;;;;;;;2.83;85.83;99386.44;4956067;29;20031;-61
2020/12/17 00:54:47;;;;;;;46.00;19.10;;;;;;;2.78;85.93;99387.16;4955377;28;20031;-61
2020/12/17 00:57:13;;;;;;;43.17;17.83;;;;;;;2.77;86.33;99381.22;4956983;29;20038;-63
2020/12/17 00:59:38;;;;;;;40.80;19.77;;;;;;;2.79;86.28;99387.19;4955375;28;20045;-63
2020/12/17 01:02:03;;;;;;;41.97;18.53;;;;;;;2.73;86.48;99385.34;4954752;28;20034;-63
2020/12/17 01:04:29;;;;;;;43.90;20.20;;;;;;;2.79;86.39;99384.66;4955718;29;20035;-62
2020/12/17 01:06:54;;;;;;;45.10;19.93;;;;;;;2.71;86.52;99381.94;4955770;29;20042;-63
2020/12/17 01:09:20;;;;;;;38.87;19.23;;;;;;;2.73;86.20;99387.03;4943194;28;20141;-61
2020/12/17 01:11:45;;;;;;;38.67;17.47;;;;;;;2.67;86.23;99387.72;4937832;29;20038;-61
2020/12/17 01:14:10;;;;;;;37.63;16.63;;;;;;;2.69;86.58;99375.97;4936269;29;20051;-61
2020/12/17 01:16:36;;;;;;;37.27;17.03;;;;;;;2.73;86.32;99377.75;4937647;29;20385;-61
2020/12/17 01:19:01;;;;;;;42.27;18.13;;;;;;;2.76;86.09;99377.81;4954276;28;20466;-62
2020/12/17 01:21:27;;;;;;;44.13;18.60;;;;;;;2.79;86.30;99376.19;4955142;28;20051;-62
2020/12/17 01:23:53;;;;;;;36.17;18.60;;;;;;;2.77;86.24;99378.69;4956046;29;20042;-62
2020/12/17 01:26:18;;;;;;;47.47;19.47;;;;;;;2.74;85.40;99379.47;4947161;28;20099;-62
2020/12/17 01:28:44;;;;;;;38.43;18.20;;;;;;;2.77;86.01;99383.75;4937709;29;20051;-62
2020/12/17 01:31:11;;;;;;;36.00;16.40;;;;;;;2.78;86.03;99385.47;4936233;29;20046;-62
2020/12/17 01:33:37;;;;;;;26.70;13.10;;;;;;;2.74;85.29;99386.22;4936371;29;20086;-62
2020/12/17 01:36:04;;;;;;;23.23;13.23;;;;;;;2.65;84.66;99373.34;4942970;28;20035;-62
2020/12/17 01:38:30;;;;;;;22.17;11.53;;;;;;;2.71;83.78;99379.41;4937040;28;20092;-62
2020/12/17 01:40:56;;;;;;;26.03;13.63;;;;;;;2.75;83.90;99386.28;4942120;28;20028;-62
2020/12/17 01:43:21;;;;;;;25.47;11.23;;;;;;;2.76;83.31;99387.09;4955058;28;20105;-62
2020/12/17 01:45:47;;;;;;;28.00;11.90;;;;;;;2.76;82.79;99385.44;4951146;28;20031;-62
2020/12/17 01:48:16;;;;;;;25.67;12.83;;;;;;;2.76;83.03;99382.88;4939407;29;20063;-62
2020/12/17 01:50:44;;;;;;;21.40;13.17;;;;;;;2.80;83.39;99385.53;4955463;29;20055;-62
2020/12/17 01:53:09;;;;;;;29.00;13.83;;;;;;;2.74;82.86;99384.56;4936596;28;20036;-62
2020/12/17 01:55:35;;;;;;;29.80;12.97;;;;;;;2.75;83.33;99388.81;4936549;29;20468;-62
2020/12/17 01:58:03;;;;;;;23.97;12.67;;;;;;;2.80;83.08;99393.13;4953112;28;20122;-62
2020/12/17 02:00:34;;;;;;;26.93;12.90;;;;;;;2.80;82.86;99400.72;4953222;28;20039;-62
2020/12/17 02:03:00;;;;;;;25.37;11.60;;;;;;;2.78;82.61;99397.28;4936463;29;20057;-62
2020/12/17 02:05:25;;;;;;;20.70;10.73;;;;;;;2.56;82.09;99386.63;4945442;28;20031;-61
2020/12/17 02:07:51;;;;;;;17.20;9.47;;;;;;;2.59;81.84;99388.38;4953656;29;20067;-61
2020/12/17 02:10:17;;;;;;;20.77;11.27;;;;;;;2.52;81.69;99387.38;4954728;28;20071;-61
2020/12/17 02:12:47;;;;;;;19.10;9.83;;;;;;;2.61;81.69;99387.59;4960601;28;20078;-63
2020/12/17 02:15:13;;;;;;;19.30;10.77;;;;;;;2.53;81.48;99378.97;4978328;28;20037;-61
2020/12/17 02:17:39;;;;;;;22.37;11.53;;;;;;;2.57;81.39;99383.28;4979110;28;20468;-62
2020/12/17 02:20:06;;;;;;;21.80;11.23;;;;;;;2.65;81.54;99388.53;4970619;28;20074;-61
2020/12/17 02:22:33;;;;;;;21.33;10.50;;;;;;;2.66;81.86;99388.56;4958426;29;20023;-61
2020/12/17 02:24:59;;;;;;;16.67;11.03;;;;;;;2.66;81.78;99380.97;4965700;28;20022;-62
2020/12/17 02:27:24;;;;;;;19.37;12.13;;;;;;;2.68;81.85;99394.50;4979079;28;20031;-61
2020/12/17 02:29:49;;;;;;;23.03;13.07;;;;;;;2.70;82.02;99390.34;4977772;28;20030;-61
2020/12/17 02:32:15;;;;;;;25.40;11.67;;;;;;;2.68;81.97;99391.97;4973544;28;20031;-61
2020/12/17 02:34:41;;;;;;;27.17;13.33;;;;;;;2.68;82.06;99391.97;4940430;29;20481;-61
2020/12/17 02:37:08;;;;;;;25.83;13.97;;;;;;;2.74;82.59;99397.22;4940176;29;20024;-62
2020/12/17 02:39:34;;;;;;;27.03;14.70;;;;;;;2.71;82.91;99397.13;4976112;28;20176;-62
2020/12/17 02:41:59;;;;;;;30.37;14.17;;;;;;;2.73;82.80;99398.03;4977996;28;20030;-62
2020/12/17 02:44:25;;;;;;;30.00;14.60;;;;;;;2.69;82.78;99398.75;4978002;28;20031;-62
2020/12/17 02:46:50;;;;;;;27.17;14.00;;;;;;;2.74;83.04;99399.75;4958249;28;20020;-62
2020/12/17 02:49:15;;;;;;;19.73;12.10;;;;;;;2.73;82.79;99399.69;4940472;28;20341;-62
2020/12/17 02:51:41;;;;;;;21.80;12.20;;;;;;;2.73;82.20;99400.56;4957814;29;20101;-62
2020/12/17 02:54:06;;;;;;;24.37;12.70;;;;;;;2.70;82.24;99394.56;4959953;28;20401;-62
2020/12/17 02:56:31;;;;;;;28.40;15.73;;;;;;;2.69;82.28;99396.22;4939528;29;20039;-62
2020/12/17 02:58:57;;;;;;;18.63;12.77;;;;;;;2.71;82.47;99399.66;4920527;28;20517;-62
2020/12/17 03:01:22;;;;;;;23.70;12.40;;;;;;;2.69;82.94;99397.91;4939655;29;20023;-62
2020/12/17 03:03:47;;;;;;;26.53;13.33;;;;;;;2.71;82.68;99393.75;4940509;29;20035;-62
2020/12/17 03:06:13;;;;;;;25.30;12.07;;;;;;;2.66;82.33;99397.84;4955780;28;20161;-62
2020/12/17 03:08:38;;;;;;;23.37;12.77;;;;;;;2.63;82.29;99396.06;4962941;28;20019;-62
2020/12/17 03:11:04;;;;;;;20.33;10.87;;;;;;;2.62;81.78;99393.53;4973216;28;20041;-62
2020/12/17 03:13:29;;;;;;;20.17;10.83;;;;;;;2.58;81.69;99397.66;4970738;28;20110;-62
2020/12/17 03:15:55;;;;;;;19.40;10.10;;;;;;;2.55;81.83;99401.75;4943284;28;20034;-62
2020/12/17 03:18:20;;;;;;;22.47;10.97;;;;;;;2.51;81.71;99394.91;4954316;28;20412;-61
2020/12/17 03:20:46;;;;;;;23.23;12.17;;;;;;;2.56;81.60;99393.34;4953873;28;20031;-61
2020/12/17 03:23:12;;;;;;;18.60;10.40;;;;;;;2.58;81.83;99394.25;4946110;28;20062;-62
2020/12/17 03:25:37;;;;;;;21.80;10.80;;;;;;;2.60;81.57;99395.13;4942715;28;20433;-62
2020/12/17 03:28:02;;;;;;;22.70;10.47;;;;;;;2.58;81.47;99391.72;4944194;28;20334;-62
2020/12/17 03:30:28;;;;;;;20.93;12.13;;;;;;;2.62;81.44;99401.13;4940800;28;20023;-63
2020/12/17 03:32:53;;;;;;;25.87;12.47;;;;;;;2.62;81.43;99399.44;4942707;28;20098;-62
2020/12/17 03:35:19;;;;;;;19.70;10.20;;;;;;;2.69;79.88;99396.22;4950533;28;20173;-63
2020/12/17 03:37:44;;;;;;;18.67;10.63;;;;;;;2.63;80.53;99391.00;4951102;28;20019;-62
2020/12/17 03:40:10;;;;;;;22.00;11.53;;;;;;;2.63;80.40;99385.94;4952383;28;20139;-62
2020/12/17 03:42:35;;;;;;;20.90;11.23;;;;;;;2.64;80.42;99387.66;4945919;28;20468;-62
2020/12/17 03:45:00;;;;;;;24.50;12.73;;;;;;;2.65;80.80;99396.13;4946746;28;20031;-62
2020/12/17 03:47:26;;;;;;;20.57;11.80;;;;;;;2.68;81.03;99393.66;4948959;28;20444;-63
2020/12/17 03:49:51;;;;;;;21.97;12.37;;;;;;;2.66;81.09;99395.31;4943818;28;20341;-62
2020/12/17 03:52:17;;;;;;;23.13;12.63;;;;;;;2.63;80.99;99396.06;4939860;28;20034;-62
2020/12/17 03:54:42;;;;;;;21.03;11.57;;;;;;;2.66;81.04;99402.91;4944648;28;20023;-62
2020/12/17 03:57:07;;;;;;;19.93;11.20;;;;;;;2.71;81.16;99399.66;4939019;28;20485;-62
2020/12/17 03:59:33;;;;;;;18.87;11.27;;;;;;;2.71;80.73;99398.81;4943725;28;20110;-62
2020/12/17 04:01:58;;;;;;;22.33;11.87;;;;;;;2.70;81.06;99397.94;4947712;28;20019;-62
2020/12/17 04:04:24;;;;;;;22.40;13.10;;;;;;;2.63;80.65;99398.59;4944019;28;20036;-62
2020/12/17 04:06:49;;;;;;;26.63;14.00;;;;;;;2.70;81.06;99402.16;4943451;28;20024;-62
2020/12/17 04:09:14;;;;;;;23.43;12.57;;;;;;;2.62;81.29;99404.50;4947083;28;20043;-62
2020/12/17 04:11:40;;;;;;;21.63;12.83;;;;;;;2.59;81.38;99403.56;4948883;28;20035;-63
2020/12/17 04:14:05;;;;;;;25.07;12.63;;;;;;;2.54;81.81;99400.06;4940910;28;20099;-63
2020/12/17 04:16:30;;;;;;;21.90;11.57;;;;;;;2.53;81.55;99399.22;4947164;28;20113;-63
2020/12/17 04:18:56;;;;;;;22.33;13.20;;;;;;;2.52;82.08;99397.50;4927939;29;20098;-63
2020/12/17 04:21:21;;;;;;;26.90;11.87;;;;;;;2.55;81.80;99397.56;4955597;28;20031;-62
2020/12/17 04:23:47;;;;;;;25.37;12.57;;;;;;;2.63;81.82;99398.59;4948358;28;20055;-63
2020/12/17 04:26:13;;;;;;;22.30;12.37;;;;;;;2.64;81.58;99405.38;4952051;28;20032;-62
2020/12/17 04:28:39;;;;;;;21.70;11.33;;;;;;;2.62;81.08;99401.13;4945595;28;20038;-62
2020/12/17 04:31:05;;;;;;;18.03;11.23;;;;;;;2.63;81.10;99406.19;4949883;28;20097;-62
2020/12/17 04:33:30;;;;;;;20.90;11.17;;;;;;;2.65;81.33;99408.78;4948023;28;20042;-64
2020/12/17 04:35:56;;;;;;;21.57;11.17;;;;;;;2.67;81.24;99407.16;4938680;29;20063;-64
2020/12/17 04:38:21;;;;;;;21.93;11.57;;;;;;;2.69;81.01;99411.41;4955831;28;20027;-64
2020/12/17 04:40:46;;;;;;;17.43;9.70;;;;;;;2.69;81.15;99400.44;4955730;29;20155;-62
2020/12/17 04:43:12;;;;;;;18.03;10.83;;;;;;;2.66;80.96;99403.75;4952695;28;20360;-62
2020/12/17 04:45:39;;;;;;;20.13;11.67;;;;;;;2.65;81.49;99396.97;4936070;29;20353;-61
2020/12/17 04:48:06;;;;;;;19.90;11.87;;;;;;;2.72;81.53;99406.44;4936502;29;20062;-62
2020/12/17 04:50:32;;;;;;;26.00;12.20;;;;;;;2.64;81.66;99391.88;4947299;28;20365;-61
2020/12/17 04:53:00;;;;;;;20.37;11.30;;;;;;;2.65;81.26;99398.66;4950557;29;20038;-61
2020/12/17 04:55:28;;;;;;;20.27;11.23;;;;;;;2.66;81.12;99403.75;4954925;28;20147;-61
2020/12/17 04:57:58;;;;;;;22.30;11.23;;;;;;;2.59;81.26;99404.41;4955846;29;20620;-61
2020/12/17 05:00:23;;;;;;;20.33;12.10;;;;;;;2.52;81.31;99400.03;4955457;28;20035;-61
2020/12/17 05:02:49;;;;;;;22.47;12.13;;;;;;;2.52;81.23;99400.03;4956560;29;20082;-62
2020/12/17 05:05:15;;;;;;;21.77;12.50;;;;;;;2.49;81.70;99402.47;4955241;28;20035;-61
2020/12/17 05:07:41;;;;;;;20.60;11.60;;;;;;;2.51;81.95;99405.88;4955857;29;20448;-61
2020/12/17 05:10:07;;;;;;;20.73;11.40;;;;;;;2.58;81.85;99401.84;4955148;28;20321;-61
2020/12/17 05:12:33;;;;;;;21.03;12.03;;;;;;;2.55;81.77;99397.56;4959063;28;20085;-61
2020/12/17 05:14:58;;;;;;;22.93;13.10;;;;;;;2.61;82.00;99396.88;4974288;28;20080;-61
2020/12/17 05:17:24;;;;;;;36.20;18.23;;;;;;;2.63;81.87;99398.59;4975128;28;20027;-62
2020/12/17 05:19:50;;;;;;;28.87;16.67;;;;;;;2.65;81.85;99403.72;4968567;28;20039;-62
2020/12/17 05:22:16;;;;;;;24.57;13.93;;;;;;;2.65;81.33;99404.56;4964218;28;20030;-62
2020/12/17 05:24:46;;;;;;;25.47;12.40;;;;;;;2.68;81.17;99394.50;4975352;28;20027;-61
2020/12/17 05:27:11;;;;;;;22.47;12.70;;;;;;;2.49;81.81;99394.88;4972643;28;20042;-62
2020/12/17 05:29:39;;;;;;;22.93;11.43;;;;;;;2.42;82.31;99409.88;4936229;29;20090;-62
2020/12/17 05:32:05;;;;;;;21.23;12.63;;;;;;;2.43;82.43;99409.03;4936148;29;20052;-62
2020/12/17 05:34:32;;;;;;;27.43;12.30;;;;;;;2.43;82.64;99416.63;4972130;28;20030;-62
2020/12/17 05:36:58;;;;;;;22.03;12.37;;;;;;;2.45;82.48;99417.53;4974385;28;20030;-62
2020/12/17 05:39:24;;;;;;;25.57;13.23;;;;;;;2.44;82.40;99413.28;4942054;28;20095;-61
2020/12/17 05:41:53;;;;;;;26.13;13.07;;;;;;;2.50;82.81;99419.38;4936134;29;20027;-61
2020/12/17 05:44:21;;;;;;;25.53;13.47;;;;;;;2.53;82.33;99418.59;4940807;28;20457;-62
2020/12/17 05:46:49;;;;;;;25.43;12.20;;;;;;;2.55;82.41;99417.81;4938725;28;20058;-61
2020/12/17 05:49:27;;;;;;;25.20;12.93;;;;;;;2.39;82.14;99422.44;4958808;28;20038;-62
2020/12/17 05:52:12;;;;;;;27.27;14.20;;;;;;;2.22;82.74;99414.41;4957105;28;20400;-61
2020/12/17 05:54:42;;;;;;;24.25;14.05;;;;;;;2.19;83.42;99417.72;4959954;29;20082;-62
2020/12/17 05:57:16;;;;;;;28.33;13.47;;;;;;;2.29;83.38;99413.78;4959946;29;20131;-62
2020/12/17 05:59:54;;;;;;;25.00;13.80;;;;;;;2.38;83.35;99413.97;4958911;28;20028;-62
2020/12/17 06:02:26;;;;;;;28.63;14.60;;;;;;;2.44;83.13;99421.75;4976094;28;20034;-62
2020/12/17 06:05:03;;;;;;;26.47;14.00;;;;;;;2.46;83.32;99412.50;4954488;29;20400;-62
2020/12/17 06:07:39;;;;;;;27.27;13.27;;;;;;;2.50;82.82;99424.44;4941538;28;20023;-62
2020/12/17 06:10:07;;;;;;;23.93;14.27;;;;;;;2.49;82.77;99427.78;4939731;29;20364;-62
2020/12/17 06:12:36;;;;;;;31.63;15.97;;;;;;;2.50;83.08;99429.50;4920466;29;20063;-62
2020/12/17 06:15:03;;;;;;;26.47;14.60;;;;;;;2.46;83.12;99426.84;4939886;29;20039;-62
2020/12/17 06:17:37;;;;;;;24.73;12.03;;;;;;;2.41;83.04;99431.81;4923718;29;20411;-62
2020/12/17 06:20:03;;;;;;;25.60;12.87;;;;;;;2.44;83.32;99436.94;4927934;29;20343;-61
2020/12/17 06:22:30;;;;;;;23.13;13.77;;;;;;;2.40;82.63;99427.53;4927329;29;20143;-61
2020/12/17 06:24:57;;;;;;;23.13;12.80;;;;;;;2.43;82.64;99429.28;4920295;29;20071;-61
2020/12/17 06:27:31;;;;;;;24.60;12.00;;;;;;;2.50;82.76;99437.09;4919381;29;20035;-60
2020/12/17 06:30:08;;;;;;;27.13;13.97;;;;;;;2.51;82.87;99437.94;4935450;29;20464;-61
2020/12/17 06:32:35;;;;;;;26.10;14.43;;;;;;;2.38;82.32;99439.28;4922894;29;20356;-61
2020/12/17 06:35:13;;;;;;;22.57;13.00;;;;;;;2.48;82.33;99446.31;4939407;29;20078;-60
2020/12/17 06:37:39;;;;;;;24.97;13.40;;;;;;;2.42;82.23;99446.13;4937472;29;20039;-60
2020/12/17 06:40:05;;;;;;;21.03;12.43;;;;;;;2.40;82.90;99449.47;4939133;29;20068;-60
2020/12/17 06:42:34;;;;;;;23.93;13.47;;;;;;;2.43;83.22;99457.97;4938407;29;20126;-61
2020/12/17 06:45:00;;;;;;;23.83;13.63;;;;;;;2.30;83.20;99458.47;4939425;29;20455;-62
2020/12/17 06:47:29;;;;;;;20.90;11.23;;;;;;;2.22;82.66;99468.38;4938478;29;20111;-60
2020/12/17 06:50:35;;;;;;;21.07;12.03;;;;;;;2.28;82.52;99468.56;4939041;29;20406;-59
2020/12/17 06:53:12;;;;;;;22.00;11.33;;;;;;;2.23;82.78;99462.53;4937988;29;20035;-60
2020/12/17 06:55:50;;;;;;;21.70;12.07;;;;;;;2.36;82.47;99468.75;4923159;29;20024;-61
2020/12/17 06:58:21;;;;;;;24.17;12.20;;;;;;;2.36;82.37;99468.75;4918626;29;20020;-61
2020/12/17 07:00:47;;;;;;;21.27;11.40;;;;;;;2.12;82.78;99480.75;4936091;29;20036;-61
2020/12/17 07:03:44;;;;;;;18.77;12.40;;;;;;;2.21;82.37;99483.50;4938393;29;20055;-60
2020/12/17 07:06:24;;;;;;;23.20;12.10;;;;;;;2.25;82.69;99480.25;4938836;29;20020;-61
2020/12/17 07:08:55;;;;;;;26.47;13.17;;;;;;;2.29;82.45;99474.47;4937116;29;20024;-61
2020/12/17 07:11:45;;;;;;;24.17;13.17;;;;;;;2.33;82.22;99481.34;4938340;29;20039;-61
2020/12/17 07:14:26;;;;;;;22.50;12.67;;;;;;;2.32;82.75;99481.28;4953238;29;20047;-64
2020/12/17 07:16:58;;;;;;;24.40;13.30;;;;;;;2.29;82.70;99484.59;4958769;29;20357;-61
2020/12/17 07:19:39;;;;;;;25.00;13.73;;;;;;;2.33;83.06;99490.59;4955948;28;20393;-61
2020/12/17 07:22:08;;;;;;;22.53;12.13;;;;;;;2.25;83.12;99491.22;4957791;29;20030;-61
2020/12/17 07:24:47;;;;;;;23.10;12.63;;;;;;;2.21;83.08;99488.56;4957123;29;20080;-61
2020/12/17 07:27:15;;;;;;;28.77;14.23;;;;;;;2.15;82.81;99485.88;4941364;28;20043;-61
2020/12/17 07:30:00;;;;;;;23.73;12.60;;;;;;;2.21;82.98;99488.56;4938574;29;20055;-60
2020/12/17 07:32:30;;;;;;;25.03;12.97;;;;;;;2.29;83.06;99487.97;4955586;28;20062;-61
2020/12/17 07:35:00;;;;;;;23.23;13.90;;;;;;;2.40;82.60;99492.47;4956876;29;20038;-61
2020/12/17 07:37:37;;;;;;;22.50;13.27;;;;;;;2.46;82.56;99488.41;4944243;29;20034;-60
2020/12/17 07:40:24;;;;;;;22.93;13.63;;;;;;;2.53;81.63;99500.44;4957136;29;20031;-60
2020/12/17 07:43:05;;;;;;;21.87;12.13;;;;;;;2.49;81.60;99503.72;4955600;28;20038;-60
2020/12/17 07:45:57;;;;;;;19.60;11.17;;;;;;;2.52;81.07;99503.78;4976315;28;20043;-60
2020/12/17 07:48:44;;;;;;;20.73;12.10;;;;;;;2.53;81.76;99494.53;4923078;29;20050;-61
2020/12/17 07:51:12;;;;;;;21.93;12.43;;;;;;;2.61;80.83;99486.31;4954019;29;20042;-61
2020/12/17 07:53:38;;;;;;;21.60;11.87;;;;;;;2.60;81.26;99496.38;4957615;28;20019;-61
2020/12/17 07:56:05;;;;;;;21.47;12.70;;;;;;;2.51;81.15;99491.94;4956884;29;20045;-61
2020/12/17 07:58:30;;;;;;;27.20;12.73;;;;;;;2.32;81.72;99496.47;4955737;28;20090;-61
2020/12/17 08:00:59;;;;;;;22.23;11.93;;;;;;;2.38;81.89;99489.06;4956476;29;20031;-62
2020/12/17 08:03:25;;;;;;;23.90;13.57;;;;;;;2.42;82.00;99490.84;4956463;28;20357;-61
2020/12/17 08:05:52;;;;;;;24.87;13.67;;;;;;;2.39;81.16;99498.34;4956167;28;20027;-61
2020/12/17 08:08:18;;;;;;;23.70;13.57;;;;;;;2.35;81.42;99494.88;4956903;29;20024;-61
2020/12/17 08:10:45;;;;;;;25.63;13.57;;;;;;;2.27;81.67;99487.09;4954410;28;20031;-61
2020/12/17 08:13:10;;;;;;;23.13;12.33;;;;;;;2.25;81.97;99490.38;4965321;28;20061;-61
2020/12/17 08:15:36;;;;;;;23.40;12.43;;;;;;;2.30;81.66;99496.41;4975646;28;20018;-61
2020/12/17 08:18:04;;;;;;;24.17;12.07;;;;;;;2.33;81.95;99500.72;4955702;28;20030;-61
2020/12/17 08:20:30;;;;;;;23.13;12.77;;;;;;;2.35;82.25;99499.94;4947386;28;20024;-61
2020/12/17 08:22:56;;;;;;;26.73;13.90;;;;;;;2.25;81.97;99493.75;4963856;28;20360;-61
2020/12/17 08:25:22;;;;;;;41.87;23.03;;;;;;;2.28;82.09;99503.97;4956156;28;20030;-61
2020/12/17 08:27:51;;;;;;;23.40;13.67;;;;;;;2.28;81.80;99498.91;4956433;28;20023;-61
2020/12/17 08:30:17;;;;;;;21.50;12.73;;;;;;;2.37;82.02;99497.47;4953714;28;20023;-61
2020/12/17 08:32:54;;;;;;;24.87;13.70;;;;;;;2.45;81.34;99496.84;4966347;28;20039;-62
2020/12/17 08:35:26;;;;;;;28.43;14.90;;;;;;;2.36;82.21;99506.72;4953137;28;20530;-62
2020/12/17 08:37:55;;;;;;;24.63;13.33;;;;;;;2.46;82.01;99508.66;4950393;28;20028;-61
2020/12/17 08:40:28;;;;;;;26.60;14.23;;;;;;;2.53;82.06;99510.56;4941898;29;20369;-61
2020/12/17 08:43:03;;;;;;;27.87;14.67;;;;;;;2.62;81.41;99509.94;4954753;29;20024;-61
2020/12/17 08:45:29;;;;;;;30.23;15.83;;;;;;;2.49;81.74;99513.81;4955209;28;20116;-61
2020/12/17 08:48:00;;;;;;;26.77;15.37;;;;;;;2.37;81.97;99520.22;4946060;29;20039;-62
2020/12/17 08:50:26;;;;;;;23.43;13.70;;;;;;;2.43;81.35;99510.25;4955243;28;20041;-61
2020/12/17 08:52:53;;;;;;;27.33;14.43;;;;;;;2.44;81.73;99517.03;4952604;28;20411;-61
2020/12/17 08:55:19;;;;;;;22.87;13.73;;;;;;;2.46;80.89;99525.53;4955369;29;20027;-61
2020/12/17 08:57:45;;;;;;;20.10;12.10;;;;;;;2.50;81.42;99529.88;4949168;28;20449;-61
2020/12/17 09:00:19;;;;;;;21.03;12.93;;;;;;;2.62;81.11;99531.06;4955430;28;20030;-61
2020/12/17 09:02:45;;;;;;;17.53;11.23;;;;;;;2.68;80.62;99527.81;4975897;28;20049;-62
2020/12/17 09:05:12;;;;;;;22.40;12.37;;;;;;;2.75;79.67;99529.72;4948866;28;20032;-60
2020/12/17 09:07:41;;;;;;;24.87;12.67;;;;;;;2.65;79.60;99535.34;4936217;28;20027;-60
2020/12/17 09:10:11;;;;;;;21.80;12.53;;;;;;;2.59;79.83;99528.44;4953328;29;20102;-59
2020/12/17 09:12:37;;;;;;;20.37;11.23;;;;;;;2.33;81.47;99529.41;4957412;28;20059;-60
2020/12/17 09:15:10;;;;;;;19.43;11.60;;;;;;;2.33;81.21;99531.94;4937932;29;20034;-60
2020/12/17 09:17:37;;;;;;;20.87;11.63;;;;;;;2.30;81.33;99537.75;4954693;28;20035;-60
2020/12/17 09:20:20;;;;;;;23.77;12.43;;;;;;;2.21;81.59;99536.63;4954814;29;20109;-60
2020/12/17 09:22:46;;;;;;;23.97;14.23;;;;;;;2.33;81.39;99542.06;4954290;28;20338;-60
2020/12/17 09:25:27;;;;;;;20.50;12.03;;;;;;;2.57;81.32;99537.66;4954581;29;20078;-59
2020/12/17 09:27:52;;;;;;;20.23;12.33;;;;;;;2.56;80.38;99541.00;4953621;28;20053;-60
2020/12/17 09:30:19;;;;;;;19.67;11.33;;;;;;;2.50;79.90;99540.00;4954111;29;20024;-61
2020/12/17 09:32:59;;;;;;;25.93;13.37;;;;;;;2.55;79.87;99538.41;4949049;28;20066;-60
2020/12/17 09:35:30;;;;;;;36.13;16.30;;;;;;;2.63;79.33;99540.34;4955444;29;20035;-60
2020/12/17 09:38:07;;;;;;;21.40;13.10;;;;;;;2.71;79.72;99540.56;4946396;28;20019;-60
2020/12/17 09:40:37;;;;;;;22.50;13.43;;;;;;;2.73;79.31;99541.47;4951308;28;20027;-60
2020/12/17 09:43:14;;;;;;;24.00;12.97;;;;;;;2.71;78.93;99543.97;4950787;28;20480;-61
2020/12/17 09:45:44;;;;;;;19.40;11.53;;;;;;;2.79;79.55;99540.78;4952509;28;20379;-61
2020/12/17 09:48:27;;;;;;;24.13;12.27;;;;;;;2.92;78.51;99532.69;4938214;29;20433;-61
2020/12/17 09:51:03;;;;;;;25.50;13.10;;;;;;;2.83;78.52;99522.31;4950317;28;20479;-61
2020/12/17 09:53:30;;;;;;;23.73;13.13;;;;;;;2.94;78.28;99533.56;4949533;28;20031;-61
2020/12/17 09:55:56;;;;;;;22.30;13.27;;;;;;;2.96;77.69;99526.88;4942351;28;20111;-61
2020/12/17 09:58:22;;;;;;;24.47;13.70;;;;;;;2.93;78.46;99536.94;4948615;28;20099;-61
2020/12/17 10:00:47;;;;;;;25.57;13.47;;;;;;;2.95;78.42;99531.06;4940442;28;20046;-61
2020/12/17 10:03:13;;;;;;;28.07;14.10;;;;;;;2.99;78.11;99532.00;4935481;28;20038;-61
2020/12/17 10:05:39;;;;;;;24.93;12.97;;;;;;;3.05;77.97;99527.13;4949162;28;20107;-61
2020/12/17 10:08:05;;;;;;;26.13;14.60;;;;;;;3.10;77.79;99531.44;4947207;28;20140;-61
2020/12/17 10:10:33;;;;;;;23.27;12.27;;;;;;;3.08;78.02;99537.31;4947525;28;20477;-62
2020/12/17 10:13:02;;;;;;;21.33;12.83;;;;;;;3.11;77.45;99537.38;4943038;28;20430;-61
2020/12/17 10:15:30;;;;;;;24.37;13.47;;;;;;;3.17;77.82;99540.94;4943304;28;20475;-61
2020/12/17 10:17:56;;;;;;;26.27;14.13;;;;;;;3.10;77.64;99536.53;4940329;28;20043;-61
2020/12/17 10:20:23;;;;;;;23.30;13.50;;;;;;;3.04;77.51;99541.44;4928141;29;20042;-61
2020/12/17 10:22:48;;;;;;;23.57;13.07;;;;;;;3.14;78.01;99537.47;4940525;28;20028;-61
2020/12/17 10:25:15;;;;;;;24.43;14.27;;;;;;;3.14;77.88;99542.53;4941169;28;20383;-61
2020/12/17 10:27:41;;;;;;;26.57;15.60;;;;;;;3.11;77.93;99545.84;4943419;28;20094;-61
2020/12/17 10:30:07;;;;;;;23.30;14.90;;;;;;;3.03;77.94;99549.84;4947340;28;20031;-61
2020/12/17 10:32:34;;;;;;;22.17;13.83;;;;;;;2.94;78.85;99549.63;4951702;28;20035;-62
2020/12/17 10:34:59;;;;;;;28.07;14.53;;;;;;;2.83;78.70;99553.56;4943284;28;20078;-60
2020/12/17 10:37:26;;;;;;;28.60;16.53;;;;;;;2.65;80.03;99553.91;4950208;28;20035;-62
2020/12/17 10:39:51;;;;;;;28.77;14.93;;;;;;;2.64;79.17;99553.88;4942357;28;20051;-60
2020/12/17 10:42:17;;;;;;;30.03;16.37;;;;;;;2.43;80.36;99551.59;4947835;28;20150;-61
2020/12/17 10:44:42;;;;;;;28.53;16.20;;;;;;;2.53;80.59;99555.25;4947129;28;20036;-60
2020/12/17 10:47:07;;;;;;;25.63;13.97;;;;;;;2.49;79.92;99554.31;4941005;28;20420;-60
2020/12/17 10:49:34;;;;;;;22.07;13.67;;;;;;;2.54;80.43;99559.50;4951157;28;20027;-61
2020/12/17 10:51:59;;;;;;;26.77;13.53;;;;;;;2.54;80.51;99555.31;4952332;28;20028;-61
2020/12/17 10:54:25;;;;;;;30.07;15.03;;;;;;;2.56;80.31;99556.19;4930254;28;20023;-61
2020/12/17 10:56:50;;;;;;;24.80;14.60;;;;;;;2.44;81.07;99555.00;4946684;28;20346;-61
2020/12/17 10:59:16;;;;;;;29.63;14.53;;;;;;;2.41;81.22;99553.25;4934935;28;20441;-61
2020/12/17 11:01:42;;;;;;;24.57;15.70;;;;;;;2.56;81.05;99552.78;4947389;28;20091;-61
2020/12/17 11:04:08;;;;;;;25.57;14.80;;;;;;;2.58;80.94;99551.19;4930267;29;20453;-61
2020/12/17 11:06:33;;;;;;;25.40;13.77;;;;;;;2.55;80.44;99558.66;4943917;28;20449;-62
2020/12/17 11:08:58;;;;;;;30.07;14.77;;;;;;;2.42;80.65;99559.16;4941154;28;20024;-60
2020/12/17 11:11:24;;;;;;;27.00;15.40;;;;;;;2.47;80.72;99557.59;4944381;28;20034;-61
2020/12/17 11:13:50;;;;;;;24.93;13.17;;;;;;;2.42;80.89;99564.22;4948048;28;20075;-61
2020/12/17 11:16:17;;;;;;;29.30;14.13;;;;;;;2.48;80.67;99560.19;4944981;28;20026;-61
2020/12/17 11:18:43;;;;;;;32.43;14.13;;;;;;;2.51;80.89;99557.72;4929538;29;20027;-61
2020/12/17 11:21:09;;;;;;;30.83;15.47;;;;;;;2.41;81.40;99557.44;4951400;28;20338;-61
2020/12/17 11:23:35;;;;;;;29.93;14.83;;;;;;;2.35;81.52;99548.00;4944540;28;20034;-61
2020/12/17 11:26:02;;;;;;;27.97;14.13;;;;;;;2.39;81.59;99547.28;4944181;28;20125;-62
2020/12/17 11:28:28;;;;;;;25.43;13.80;;;;;;;2.26;82.21;99558.72;4946625;28;20050;-62